Time;durP1;ratioP1;P1;durP2;ratioP2;P2;SDS_P1;SDS_P2;PMS_P1;PMS_P2;Temp;Humidity;BMP_temperature;BMP_pressure;BME280_temperature;BME280_humidity;BME280_pressure;Samples;Min_cycle;Max_cycle;Signal;HPM_P1;HPM_P2
2022/04/28 00:00:40;;;;;;;11.03;5.53;;;;;;;7.73;68.95;100206.89;1664634;84;21595;-49
2022/04/28 00:03:09;;;;;;;9.07;5.17;;;;;;;7.69;69.00;100210.56;1727862;80;21037;-49
2022/04/28 00:05:37;;;;;;;8.30;4.60;;;;;;;7.62;69.08;100212.55;1725165;80;21081;-49
2022/04/28 00:08:05;;;;;;;10.20;4.43;;;;;;;7.55;69.29;100215.88;1729553;80;21081;-49
2022/04/28 00:10:34;;;;;;;11.00;4.63;;;;;;;7.51;69.35;100215.53;1663283;83;21167;-49
2022/04/28 00:13:02;;;;;;;12.53;4.33;;;;;;;7.45;69.51;100218.39;1727067;80;21045;-49
2022/04/28 00:15:30;;;;;;;8.80;4.13;;;;;;;7.42;69.72;100218.46;1662153;84;21376;-49
2022/04/28 00:17:57;;;;;;;7.07;3.43;;;;;;;7.42;69.92;100216.24;1725755;80;21045;-49
2022/04/28 00:20:24;;;;;;;11.27;3.97;;;;;;;7.43;70.07;100206.83;1726800;80;21689;-49
2022/04/28 00:22:52;;;;;;;8.77;4.70;;;;;;;7.45;70.27;100213.03;1724439;80;21617;-49
2022/04/28 00:25:22;;;;;;;12.73;5.17;;;;;;;7.48;70.33;100217.44;1727552;80;20990;-49
2022/04/28 00:27:50;;;;;;;9.63;4.57;;;;;;;7.50;70.38;100217.78;1662695;84;21499;-49
2022/04/28 00:30:17;;;;;;;7.87;4.30;;;;;;;7.50;70.36;100222.27;1680110;83;21547;-49
2022/04/28 00:32:43;;;;;;;11.03;5.10;;;;;;;7.50;70.45;100220.92;1679373;83;21131;-49
2022/04/28 00:35:11;;;;;;;8.87;4.77;;;;;;;7.49;70.55;100225.40;1679161;83;21116;-49
2022/04/28 00:37:37;;;;;;;9.47;3.97;;;;;;;7.47;70.61;100216.55;1677698;83;21772;-49
2022/04/28 00:40:06;;;;;;;11.23;4.87;;;;;;;7.45;70.64;100226.42;1678288;83;21623;-49
2022/04/28 00:42:32;;;;;;;10.47;5.03;;;;;;;7.43;70.76;100226.04;1680179;83;21136;-50
2022/04/28 00:44:59;;;;;;;7.43;5.03;;;;;;;7.40;70.84;100232.34;1678745;83;21555;-49
2022/04/28 00:50:38;;;;;;;12.33;4.70;;;;;;;7.38;70.92;100238.23;1680122;83;21214;-49
2022/04/28 00:52:40;;;;;;;;;;;;;;;7.31;71.09;100236.66;1682952;83;21237;-49
2022/04/28 00:55:07;;;;;;;10.53;3.63;;;;;;;7.31;71.19;100238.45;1677550;83;20265;-49
2022/04/28 00:57:35;;;;;;;10.33;3.93;;;;;;;7.28;71.26;100231.37;1633173;83;21123;-49
2022/04/28 01:00:03;;;;;;;9.73;4.53;;;;;;;7.28;71.35;100230.03;1674946;83;21061;-49
2022/04/28 01:02:30;;;;;;;11.70;4.67;;;;;;;7.30;71.42;100225.52;1686368;83;21135;-49
2022/04/28 01:04:56;;;;;;;11.37;4.43;;;;;;;7.32;71.46;100224.11;1651125;83;21638;-49
2022/04/28 01:07:24;;;;;;;10.50;4.87;;;;;;;7.32;71.48;100230.34;1682573;83;21429;-49
2022/04/28 01:09:51;;;;;;;10.30;5.40;;;;;;;7.31;71.60;100224.60;1665233;83;21130;-49
2022/04/28 01:12:19;;;;;;;13.10;6.07;;;;;;;7.31;71.59;100227.28;1681510;83;21120;-49
2022/04/28 01:14:50;;;;;;;12.43;5.30;;;;;;;7.30;71.55;100224.64;1685639;83;21037;-49
2022/04/28 01:17:18;;;;;;;16.90;6.80;;;;;;;7.26;71.49;100230.52;1686949;83;20906;-49
2022/04/28 01:19:48;;;;;;;14.37;5.87;;;;;;;7.20;71.38;100224.00;1691864;83;21045;-49
2022/04/28 01:22:16;;;;;;;7.80;4.33;;;;;;;7.13;71.38;100221.08;1687060;83;21061;-49
2022/04/28 01:24:43;;;;;;;8.10;5.30;;;;;;;7.10;71.56;100225.16;1643716;83;21085;-49
2022/04/28 01:27:09;;;;;;;10.03;4.67;;;;;;;7.07;71.75;100222.56;1652852;84;21049;-49
2022/04/28 01:29:37;;;;;;;12.43;5.20;;;;;;;7.04;71.81;100224.88;1669353;83;21075;-49
2022/04/28 01:32:06;;;;;;;11.57;5.30;;;;;;;7.04;71.92;100227.55;1729067;81;21045;-49
2022/04/28 01:34:36;;;;;;;14.20;5.30;;;;;;;7.04;72.07;100230.69;1733134;81;20983;-50
2022/04/28 01:37:03;;;;;;;16.50;6.13;;;;;;;7.06;72.04;100223.02;1733395;80;21535;-50
2022/04/28 01:39:30;;;;;;;14.60;5.80;;;;;;;7.06;71.86;100225.69;1730654;80;21136;-49
2022/04/28 01:41:59;;;;;;;21.17;8.50;;;;;;;7.05;71.84;100221.28;1730330;80;21475;-49
2022/04/28 01:44:26;;;;;;;19.20;8.77;;;;;;;7.03;71.87;100226.25;1734246;80;21876;-49
2022/04/28 01:46:53;;;;;;;19.03;8.53;;;;;;;7.04;71.86;100227.55;1735589;80;21360;-52
2022/04/28 01:49:39;;;;;;;20.37;8.73;;;;;;;7.05;71.98;100229.77;1731533;80;21086;-52
2022/04/28 01:55:21;;;;;;;21.93;10.20;;;;;;;7.02;72.20;100216.00;1608010;87;21593;-52
2022/04/28 01:57:54;;;;;;;21.07;8.53;;;;;;;7.04;72.30;100218.64;1641712;83;21218;-53
2022/04/28 02:00:21;;;;;;;19.43;8.17;;;;;;;7.04;72.38;100222.66;1732609;80;21057;-52
2022/04/28 02:02:49;;;;;;;19.67;8.63;;;;;;;6.99;72.35;100220.55;1727583;80;21037;-51
2022/04/28 02:05:17;;;;;;;15.63;7.00;;;;;;;6.94;72.54;100221.13;1730404;80;21048;-50
2022/04/28 02:07:44;;;;;;;14.03;6.17;;;;;;;6.90;72.73;100217.64;1732133;80;21737;-51
2022/04/28 02:10:11;;;;;;;12.63;5.70;;;;;;;6.89;72.92;100213.70;1733236;80;21073;-51
2022/04/28 02:12:38;;;;;;;16.73;6.47;;;;;;;6.89;73.12;100212.36;1733472;80;21093;-52
2022/04/28 02:15:24;;;;;;;12.57;6.33;;;;;;;6.90;73.15;100224.80;1734345;80;21040;-50
2022/04/28 02:17:50;;;;;;;11.23;5.73;;;;;;;6.89;73.22;100213.20;1731077;80;21066;-52
2022/04/28 02:20:18;;;;;;;16.03;7.07;;;;;;;6.93;73.26;100222.94;1727935;80;21117;-52
2022/04/28 02:22:45;;;;;;;21.93;8.97;;;;;;;6.94;73.15;100217.13;1732548;80;21126;-52
2022/04/28 02:25:13;;;;;;;19.50;9.70;;;;;;;6.95;73.14;100214.87;1732031;80;21038;-52
2022/04/28 02:27:40;;;;;;;17.20;8.57;;;;;;;6.95;73.13;100222.44;1731803;80;21069;-52
2022/04/28 02:30:08;;;;;;;20.97;10.63;;;;;;;6.97;73.23;100223.28;1732891;80;21535;-51
2022/04/28 02:35:22;;;;;;;19.30;8.53;;;;;;;7.01;73.44;100216.03;1725948;80;21207;-51
2022/04/28 02:37:49;;;;;;;21.80;9.20;;;;;;;7.07;73.42;100221.22;1730909;80;21078;-52
2022/04/28 02:40:17;;;;;;;24.53;8.10;;;;;;;7.11;73.40;100221.57;1734276;80;21592;-50
2022/04/28 02:42:46;;;;;;;24.43;9.37;;;;;;;7.15;73.34;100224.56;1729902;80;20976;-50
2022/04/28 02:45:13;;;;;;;21.40;9.00;;;;;;;7.20;73.29;100218.19;1735340;80;20934;-51
2022/04/28 02:47:43;;;;;;;20.57;10.03;;;;;;;7.24;73.16;100214.95;1665520;84;21050;-51
2022/04/28 02:50:11;;;;;;;30.57;12.53;;;;;;;7.24;73.13;100218.97;1734053;80;22222;-51
2022/04/28 02:52:40;;;;;;;28.23;11.67;;;;;;;7.21;72.97;100219.95;1717591;80;22145;-50
2022/04/28 02:55:08;;;;;;;23.47;10.93;;;;;;;7.15;72.86;100216.53;1731787;80;21152;-52
2022/04/28 02:57:34;;;;;;;22.97;10.40;;;;;;;7.10;72.87;100217.13;1731761;80;21492;-51
2022/04/28 03:00:04;;;;;;;23.97;9.77;;;;;;;7.04;73.03;100223.54;1734265;80;21105;-50
2022/04/28 03:02:32;;;;;;;19.07;7.73;;;;;;;7.01;73.12;100222.73;1730286;80;21045;-52
2022/04/28 03:05:04;;;;;;;16.47;6.93;;;;;;;6.97;73.20;100223.28;1737822;80;20914;-49
2022/04/28 03:13:05;;;;;;;16.20;6.33;;;;;;;6.94;73.84;100228.70;1735461;80;21434;-51
2022/04/28 03:15:32;;;;;;;18.20;6.97;;;;;;;6.97;73.96;100240.69;1729905;80;21124;-51
2022/04/28 03:17:59;;;;;;;14.93;6.33;;;;;;;7.03;74.01;100243.65;1732436;80;21053;-51
2022/04/28 03:20:26;;;;;;;15.53;6.60;;;;;;;7.08;74.02;100232.34;1729773;80;21814;-52
2022/04/28 03:22:53;;;;;;;13.00;6.83;;;;;;;7.15;74.09;100242.84;1733424;80;21101;-51
2022/04/28 03:25:19;;;;;;;20.07;7.27;;;;;;;7.22;73.96;100238.23;1729778;80;21085;-51
2022/04/28 03:27:46;;;;;;;13.83;6.90;;;;;;;7.30;74.06;100240.24;1730102;80;21069;-52
2022/04/28 03:30:13;;;;;;;20.03;7.80;;;;;;;7.37;74.10;100240.48;1724596;80;21093;-51
2022/04/28 03:32:58;;;;;;;18.03;7.00;;;;;;;7.45;74.00;100240.28;1730308;80;21865;-51
2022/04/28 03:35:24;;;;;;;18.07;8.87;;;;;;;7.51;73.96;100242.31;1731544;80;21605;-51
2022/04/28 03:37:51;;;;;;;17.60;7.70;;;;;;;7.56;73.91;100244.42;1671239;83;21083;-51
2022/04/28 03:40:19;;;;;;;19.57;8.13;;;;;;;7.59;73.95;100244.31;1664378;84;21109;-52
2022/04/28 03:42:47;;;;;;;17.33;7.33;;;;;;;7.65;73.97;100254.00;1684545;83;21100;-52
2022/04/28 03:45:13;;;;;;;13.30;6.93;;;;;;;7.69;74.25;100258.33;1688576;83;21203;-51
2022/04/28 03:47:42;;;;;;;16.13;6.73;;;;;;;7.75;74.46;100259.95;1685298;83;21093;-51
2022/04/28 03:50:10;;;;;;;23.20;7.20;;;;;;;7.79;74.53;100257.16;1687156;83;21502;-51
2022/04/28 03:52:36;;;;;;;14.33;6.43;;;;;;;7.90;74.51;100262.21;1685871;83;21605;-51
2022/04/28 03:55:05;;;;;;;14.83;6.60;;;;;;;8.01;74.31;100268.57;1686120;83;21665;-51
2022/04/28 03:57:32;;;;;;;14.47;6.10;;;;;;;8.12;74.21;100272.70;1684314;83;21140;-52
2022/04/28 03:59:59;;;;;;;16.17;7.13;;;;;;;8.30;73.92;100269.47;1685833;83;21698;-52
2022/04/28 04:02:31;;;;;;;13.87;6.20;;;;;;;8.48;73.53;100274.76;1675137;83;21559;-50
2022/04/28 04:04:59;;;;;;;14.10;6.40;;;;;;;8.66;72.95;100274.64;1678118;83;21085;-50
2022/04/28 04:07:31;;;;;;;11.97;5.13;;;;;;;8.83;72.78;100284.37;1682209;83;21037;-49
2022/04/28 04:10:10;;;;;;;14.03;4.57;;;;;;;9.01;72.34;100289.13;1677082;83;21580;-50
2022/04/28 04:12:40;;;;;;;12.77;6.43;;;;;;;9.22;71.40;100290.66;1673189;83;20994;-50
2022/04/28 04:15:17;;;;;;;9.07;5.07;;;;;;;9.55;71.33;100292.17;1733768;80;21057;-51
2022/04/28 04:18:03;;;;;;;12.23;3.57;;;;;;;9.96;70.26;100290.66;1734261;80;21427;-50
2022/04/28 04:20:35;;;;;;;7.23;3.20;;;;;;;10.25;68.14;100289.61;1736607;80;20947;-52
2022/04/28 04:23:05;;;;;;;7.95;2.92;;;;;;;10.43;66.79;100290.72;1735534;80;21441;-49
2022/04/28 04:25:33;;;;;;;4.70;2.22;;;;;;;10.51;65.41;100294.86;1733446;80;21121;-50
2022/04/28 04:27:59;;;;;;;3.55;1.82;;;;;;;10.52;64.33;100291.70;1667813;83;21488;-51
2022/04/28 04:33:18;;;;;;;6.97;2.35;;;;;;;10.52;62.64;100297.09;1699502;82;21073;-51
2022/04/28 04:35:45;;;;;;;6.72;2.00;;;;;;;10.49;61.84;100300.77;1736885;80;21572;-50
2022/04/28 04:38:11;;;;;;;6.53;1.82;;;;;;;10.47;61.56;100299.06;1736437;80;21037;-51
2022/04/28 04:40:38;;;;;;;3.27;1.75;;;;;;;10.44;61.41;100294.70;1737923;80;21836;-50
2022/04/28 04:43:09;;;;;;;7.03;1.50;;;;;;;10.42;60.83;100296.56;1734204;80;21565;-51
2022/04/28 04:45:35;;;;;;;6.20;1.75;;;;;;;10.39;60.60;100293.10;1731077;80;21120;-50
2022/04/28 04:48:14;;;;;;;3.45;1.00;;;;;;;10.37;60.85;100298.57;1732065;80;22009;-51
2022/04/28 04:50:43;;;;;;;3.25;0.93;;;;;;;10.38;60.88;100296.26;1727975;80;21100;-50
2022/04/28 04:53:23;;;;;;;1.47;0.88;;;;;;;10.40;60.64;100297.08;1733588;80;21077;-50
2022/04/28 04:55:50;;;;;;;2.22;0.80;;;;;;;10.45;60.22;100299.62;1735138;80;21061;-50
2022/04/28 04:58:16;;;;;;;2.45;0.80;;;;;;;10.47;60.07;100303.98;1733179;80;21507;-50
2022/04/28 05:00:44;;;;;;;1.95;0.78;;;;;;;10.48;59.40;100308.43;1734559;80;21821;-50
2022/04/28 05:03:20;;;;;;;1.90;1.00;;;;;;;10.49;59.74;100310.19;1724685;80;20910;-49
2022/04/28 05:06:04;;;;;;;1.67;0.82;;;;;;;10.51;59.60;100312.36;1727548;80;21182;-50
2022/04/28 05:08:32;;;;;;;2.12;1.10;;;;;;;10.53;59.47;100315.88;1727961;80;21117;-51
2022/04/28 05:11:42;;;;;;;4.33;0.80;;;;;;;10.61;59.95;100316.91;1795778;78;22532;-49
2022/04/28 05:14:11;;;;;;;1.50;0.72;;;;;;;10.62;60.10;100317.33;1775245;80;20969;-49
2022/04/28 05:16:39;;;;;;;2.72;0.90;;;;;;;10.66;59.54;100317.59;1777278;80;21682;-50
2022/04/28 05:19:09;;;;;;;2.85;0.90;;;;;;;10.71;59.75;100326.39;1737856;79;20942;-50
2022/04/28 05:21:51;;;;;;;3.27;0.70;;;;;;;10.77;59.70;100324.79;1778069;80;21017;-49
2022/04/28 05:24:31;;;;;;;2.52;0.90;;;;;;;10.87;59.69;100327.99;1707256;79;21464;-49
2022/04/28 05:27:17;;;;;;;4.30;0.70;;;;;;;10.96;59.51;100324.47;1777714;80;21009;-49
2022/04/28 05:29:50;;;;;;;1.00;0.68;;;;;;;11.07;59.08;100322.66;1767523;80;21849;-51
2022/04/28 05:32:36;;;;;;;3.25;0.90;;;;;;;11.16;58.44;100321.39;1774101;80;21434;-50
2022/04/28 05:35:07;;;;;;;2.75;0.80;;;;;;;11.23;58.36;100323.77;1776621;80;21152;-49
2022/04/28 05:37:35;;;;;;;2.00;0.70;;;;;;;11.28;58.00;100326.29;1778381;80;20974;-50
2022/04/28 05:40:06;;;;;;;0.93;0.60;;;;;;;11.33;57.35;100323.80;1775548;80;21558;-50
2022/04/28 05:48:04;;;;;;;0.98;0.40;;;;;;;11.58;55.51;100321.39;1777021;80;21041;-49
2022/04/28 05:50:33;;;;;;;0.70;0.55;;;;;;;11.63;55.34;100312.19;1778091;80;21045;-50
2022/04/28 05:53:00;;;;;;;1.57;0.60;;;;;;;11.70;55.41;100315.48;1775060;80;21589;-51
2022/04/28 05:55:27;;;;;;;0.90;0.50;;;;;;;11.77;54.42;100319.69;1776092;80;21175;-50
2022/04/28 05:57:53;;;;;;;1.35;0.45;;;;;;;11.84;54.67;100318.94;1753235;80;20966;-51
2022/04/28 06:00:21;;;;;;;5.20;0.70;;;;;;;11.94;54.58;100325.20;1736496;82;21141;-48
2022/04/28 06:02:48;;;;;;;0.60;0.40;;;;;;;12.04;53.97;100320.28;1735810;82;21439;-51
2022/04/28 06:05:17;;;;;;;3.52;0.30;;;;;;;12.15;53.93;100317.98;1709437;82;21066;-52
2022/04/28 06:07:43;;;;;;;0.68;0.30;;;;;;;12.24;53.63;100324.31;1681931;83;21480;-50
2022/04/28 06:10:13;;;;;;;2.05;0.20;;;;;;;12.34;50.23;100317.52;1675790;84;21584;-50
2022/04/28 06:12:42;;;;;;;0.40;0.30;;;;;;;12.43;49.31;100328.36;1707451;83;21038;-51
2022/04/28 06:15:15;;;;;;;2.05;0.30;;;;;;;12.50;46.64;100332.55;1686586;83;21113;-51
2022/04/28 06:18:01;;;;;;;0.68;0.20;;;;;;;12.55;47.66;100325.56;1679432;84;21917;-51
2022/04/28 06:20:28;;;;;;;0.65;0.20;;;;;;;12.62;47.31;100328.37;1683049;84;21497;-52
2022/04/28 06:22:56;;;;;;;0.28;0.17;;;;;;;12.68;45.26;100333.47;1701886;83;21067;-51
2022/04/28 06:25:25;;;;;;;0.57;0.17;;;;;;;12.73;43.63;100339.55;1687047;84;21070;-51
2022/04/28 06:27:53;;;;;;;0.17;0.13;;;;;;;12.77;43.24;100340.67;1687045;84;21298;-51
2022/04/28 06:30:20;;;;;;;1.20;0.10;;;;;;;12.84;42.69;100343.98;1686257;84;21073;-50
2022/04/28 06:32:50;;;;;;;0.42;0.20;;;;;;;12.93;40.98;100342.66;1687355;84;21057;-51
2022/04/28 06:35:29;;;;;;;0.53;0.20;;;;;;;13.04;42.13;100338.46;1684693;84;21089;-50
2022/04/28 06:37:55;;;;;;;0.23;0.20;;;;;;;13.18;41.97;100334.63;1658549;84;21016;-50
2022/04/28 06:40:23;;;;;;;0.40;0.20;;;;;;;13.33;41.24;100338.89;1688240;84;21426;-51
2022/04/28 06:42:52;;;;;;;1.40;0.20;;;;;;;13.42;41.37;100338.42;1689758;84;21650;-49
2022/04/28 06:45:25;;;;;;;0.35;0.13;;;;;;;13.49;40.00;100335.80;1687293;84;21698;-50
2022/04/28 06:48:12;;;;;;;0.20;0.10;;;;;;;13.55;39.91;100337.72;1682099;84;21427;-49
2022/04/28 06:50:42;;;;;;;0.60;0.17;;;;;;;13.64;40.19;100336.36;1684801;84;21140;-51
2022/04/28 06:53:14;;;;;;;0.33;0.20;;;;;;;13.76;39.20;100337.58;1688384;84;21536;-51
2022/04/28 06:55:44;;;;;;;0.20;0.20;;;;;;;13.83;38.62;100341.23;1687812;84;21021;-50
2022/04/28 06:58:11;;;;;;;0.30;0.20;;;;;;;13.89;38.81;100340.02;1685647;84;21153;-50
2022/04/28 07:00:40;;;;;;;0.37;0.20;;;;;;;13.94;38.34;100343.38;1688180;84;21016;-51
2022/04/28 07:03:08;;;;;;;0.90;0.10;;;;;;;13.97;38.42;100344.55;1722059;82;21014;-51
2022/04/28 07:05:39;;;;;;;0.60;0.20;;;;;;;14.00;39.09;100348.46;1699819;82;21062;-51
2022/04/28 07:08:05;;;;;;;1.07;0.20;;;;;;;14.08;39.72;100348.05;1724557;82;21141;-51
2022/04/28 07:10:37;;;;;;;1.35;0.20;;;;;;;14.19;38.70;100354.66;1720767;82;21706;-51
2022/04/28 07:13:05;;;;;;;1.00;0.20;;;;;;;14.24;38.39;100351.20;1644165;85;21402;-51
2022/04/28 07:15:51;;;;;;;0.42;0.20;;;;;;;14.27;39.04;100353.77;1725724;82;21333;-52
2022/04/28 07:18:20;;;;;;;1.55;0.20;;;;;;;14.33;37.25;100352.55;1710116;82;21065;-50
2022/04/28 07:20:47;;;;;;;0.75;0.20;;;;;;;14.35;38.21;100343.87;1723433;82;21462;-52
2022/04/28 07:23:15;;;;;;;2.25;0.20;;;;;;;14.43;38.45;100348.90;1722015;82;21093;-51
2022/04/28 07:25:42;;;;;;;1.75;0.30;;;;;;;14.49;38.03;100348.08;1722537;82;22044;-52
2022/04/28 07:28:08;;;;;;;0.20;0.20;;;;;;;14.58;37.68;100349.41;1724259;82;22359;-51
2022/04/28 07:30:55;;;;;;;0.42;0.30;;;;;;;14.64;37.47;100346.34;1724129;82;21107;-50
2022/04/28 07:33:25;;;;;;;0.40;0.20;;;;;;;14.73;36.87;100348.55;1721488;82;22319;-53
2022/04/28 07:36:06;;;;;;;0.85;0.20;;;;;;;14.76;36.32;100342.97;1719939;82;22265;-49
2022/04/28 07:38:44;;;;;;;0.40;0.23;;;;;;;14.84;36.24;100347.47;1658882;86;21504;-50
2022/04/28 07:41:14;;;;;;;0.47;0.23;;;;;;;14.92;33.95;100357.88;1721264;82;21041;-51
2022/04/28 07:43:41;;;;;;;0.33;0.20;;;;;;;14.94;35.23;100357.32;1723020;82;20955;-50
2022/04/28 07:46:08;;;;;;;0.20;0.20;;;;;;;14.97;34.65;100355.80;1722575;82;20942;-51
2022/04/28 07:48:36;;;;;;;2.00;0.20;;;;;;;15.00;34.67;100358.32;1726602;82;21299;-50
2022/04/28 07:51:03;;;;;;;3.70;0.20;;;;;;;15.03;35.12;100363.10;1726293;82;20868;-52
2022/04/28 07:53:32;;;;;;;2.25;0.78;;;;;;;15.08;35.00;100358.27;1721505;82;21049;-50
2022/04/28 07:56:15;;;;;;;0.33;0.20;;;;;;;15.13;35.56;100357.55;1721904;82;21463;-52
2022/04/28 07:58:44;;;;;;;0.90;0.20;;;;;;;15.09;34.76;100359.16;1721412;82;27105;-50
2022/04/28 08:01:14;;;;;;;1.55;0.30;;;;;;;15.06;35.74;100360.67;1722876;82;21072;-51
2022/04/28 08:03:40;;;;;;;0.95;0.28;;;;;;;15.04;35.61;100363.50;1721933;82;21493;-50
2022/04/28 08:06:08;;;;;;;0.40;0.20;;;;;;;15.01;35.56;100357.36;1721864;82;21600;-50
2022/04/28 08:08:36;;;;;;;2.02;0.30;;;;;;;14.97;35.98;100357.16;1722190;82;21814;-50
2022/04/28 08:11:03;;;;;;;2.05;0.30;;;;;;;14.93;35.67;100359.16;1728102;81;21077;-49
2022/04/28 08:13:30;;;;;;;0.50;0.30;;;;;;;14.87;36.44;100353.21;1742768;81;22719;-51
2022/04/28 08:16:00;;;;;;;0.62;0.28;;;;;;;14.86;36.59;100354.17;1738134;81;21054;-50
2022/04/28 08:18:31;;;;;;;0.55;0.33;;;;;;;14.87;36.34;100359.98;1744299;81;21789;-50
2022/04/28 08:20:58;;;;;;;1.37;0.30;;;;;;;14.86;36.21;100360.47;1743541;81;21045;-50
2022/04/28 08:23:25;;;;;;;0.42;0.20;;;;;;;14.81;36.65;100365.25;1685171;84;21095;-50
2022/04/28 08:25:53;;;;;;;0.40;0.30;;;;;;;14.75;36.55;100361.53;1681657;84;21577;-51
2022/04/28 08:28:20;;;;;;;0.90;0.37;;;;;;;14.73;37.07;100364.80;1711786;83;21032;-52
2022/04/28 08:30:47;;;;;;;0.50;0.30;;;;;;;14.76;37.50;100367.36;1708550;83;21111;-50
2022/04/28 08:33:14;;;;;;;4.28;0.45;;;;;;;14.75;37.02;100358.83;1706036;83;21113;-51
2022/04/28 08:35:41;;;;;;;0.98;0.37;;;;;;;14.76;37.45;100356.52;1689650;84;21170;-52
2022/04/28 08:38:09;;;;;;;1.77;0.40;;;;;;;14.76;37.45;100356.52;1662692;84;22454;-52
2022/04/28 08:40:36;;;;;;;0.82;0.30;;;;;;;14.85;38.38;100363.26;1688921;84;22305;-51
2022/04/28 08:43:05;;;;;;;0.47;0.30;;;;;;;14.91;37.91;100362.42;1640890;84;21113;-51
2022/04/28 08:46:50;;;;;;;0.62;0.30;;;;;;;14.96;37.51;100364.89;1687850;84;20942;-51
2022/04/28 08:48:10;;;;;;;1.02;0.30;;;;;;;14.99;36.74;100365.58;1676376;84;21496;-52
2022/04/28 08:50:50;;;;;;;0.70;0.40;;;;;;;14.97;36.25;100364.78;1688796;84;21164;-49
2022/04/28 08:53:19;;;;;;;0.42;0.30;;;;;;;14.95;36.51;100359.08;1688892;84;21960;-51
2022/04/28 08:55:45;;;;;;;1.42;0.40;;;;;;;14.97;36.99;100355.80;1688039;84;21049;-50
2022/04/28 08:58:13;;;;;;;0.40;0.40;;;;;;;15.01;36.34;100357.36;1688646;84;21106;-50
2022/04/28 09:00:41;;;;;;;0.57;0.40;;;;;;;15.06;36.70;100357.96;1685198;84;21473;-50
2022/04/28 09:03:15;;;;;;;1.42;0.45;;;;;;;15.13;36.92;100345.83;1671172;84;21850;-50
2022/04/28 09:05:44;;;;;;;0.70;0.42;;;;;;;15.24;37.08;100344.70;1684116;84;21086;-51
2022/04/28 09:08:18;;;;;;;4.22;0.40;;;;;;;15.31;36.40;100341.18;1668544;84;21057;-51
2022/04/28 09:10:56;;;;;;;1.10;0.40;;;;;;;15.33;36.84;100343.30;1653864;84;21052;-51
2022/04/28 09:16:25;;;;;;;1.77;0.70;;;;;;;15.36;36.26;100349.43;1672162;85;21519;-51
2022/04/28 09:18:54;;;;;;;0.80;0.50;;;;;;;15.38;35.84;100342.08;1701761;82;21045;-50
2022/04/28 09:21:21;;;;;;;3.30;0.90;;;;;;;15.37;35.49;100341.69;1730324;82;21106;-51
2022/04/28 09:23:52;;;;;;;2.77;0.75;;;;;;;15.35;35.84;100344.09;1730578;82;21046;-51
2022/04/28 09:26:22;;;;;;;2.58;1.15;;;;;;;15.38;36.63;100342.56;1726422;82;21090;-51
2022/04/28 09:28:53;;;;;;;3.77;0.50;;;;;;;15.41;36.13;100344.59;1724217;82;22411;-53
2022/04/28 09:31:21;;;;;;;2.17;0.40;;;;;;;15.46;34.90;100348.41;1729854;82;21061;-53
2022/04/28 09:33:50;;;;;;;0.60;0.40;;;;;;;15.46;33.00;100340.27;1697024;82;21515;-52
2022/04/28 09:36:36;;;;;;;0.55;0.35;;;;;;;15.48;33.73;100349.20;1722459;82;21058;-52
2022/04/28 09:42:31;;;;;;;1.45;0.42;;;;;;;15.64;33.05;100332.92;1730255;82;21143;-49
2022/04/28 09:45:00;;;;;;;0.95;0.60;;;;;;;15.68;33.00;100339.41;1729634;82;21122;-52
2022/04/28 09:47:31;;;;;;;0.57;0.40;;;;;;;15.68;32.33;100339.89;1728387;82;20958;-51
2022/04/28 09:49:57;;;;;;;2.10;0.50;;;;;;;15.58;32.30;100332.78;1726715;82;21086;-50
2022/04/28 09:52:31;;;;;;;1.00;0.50;;;;;;;15.57;33.11;100339.68;1725606;82;21043;-52
2022/04/28 09:55:03;;;;;;;1.67;0.60;;;;;;;15.61;33.25;100328.53;1661368;85;22195;-52
2022/04/28 09:57:33;;;;;;;0.98;0.60;;;;;;;15.70;34.20;100332.54;1679362;84;21456;-53
2022/04/28 10:00:00;;;;;;;2.40;0.65;;;;;;;15.78;33.98;100328.87;1656296;84;21572;-51
2022/04/28 10:02:30;;;;;;;2.72;0.75;;;;;;;15.83;33.82;100328.98;1706440;82;21348;-52
2022/04/28 10:04:58;;;;;;;4.55;1.07;;;;;;;15.77;33.70;100328.00;1725189;82;21701;-51
2022/04/28 10:07:36;;;;;;;3.75;0.70;;;;;;;15.73;34.14;100332.37;1667577;85;21417;-52
2022/04/28 10:10:06;;;;;;;4.30;0.70;;;;;;;15.67;34.10;100332.71;1659245;85;21014;-51
2022/04/28 10:12:33;;;;;;;1.85;0.70;;;;;;;15.60;34.47;100336.28;1723639;82;21293;-51
2022/04/28 10:15:06;;;;;;;2.45;0.80;;;;;;;15.54;34.00;100342.56;1714492;82;21041;-53
2022/04/28 10:17:46;;;;;;;15.72;11.20;;;;;;;15.45;34.35;100339.88;1722238;82;21626;-51
2022/04/28 10:20:28;;;;;;;1.55;0.90;;;;;;;15.46;34.78;100333.01;1721875;82;21907;-51
2022/04/28 10:23:00;;;;;;;2.85;0.80;;;;;;;15.45;34.97;100337.16;1722869;82;21403;-51
2022/04/28 10:34:12;;;;;;;1.20;0.40;;;;;;;15.74;35.92;100320.52;1705548;82;21258;-49
2022/04/28 10:36:57;;;;;;;1.75;0.40;;;;;;;15.86;35.71;100321.14;1721700;82;21094;-49
2022/04/28 10:39:40;;;;;;;0.60;0.40;;;;;;;16.01;36.15;100317.48;1703636;82;21034;-50
2022/04/28 10:42:22;;;;;;;0.88;0.40;;;;;;;16.18;35.55;100319.15;1724780;82;21572;-51
2022/04/28 10:44:55;;;;;;;1.02;0.47;;;;;;;16.30;34.00;100310.25;1705273;82;20978;-51
2022/04/28 10:47:35;;;;;;;3.35;0.40;;;;;;;16.36;34.53;100323.44;1724388;82;21618;-49
2022/04/28 10:50:04;;;;;;;5.35;0.40;;;;;;;16.43;34.54;100316.64;1725048;82;21007;-51
2022/04/28 10:52:32;;;;;;;3.05;0.45;;;;;;;16.51;34.12;100312.07;1719815;82;21487;-52
2022/04/28 10:55:01;;;;;;;2.60;0.50;;;;;;;16.55;33.50;100308.20;1658658;82;21498;-50
2022/04/28 10:57:35;;;;;;;0.60;0.30;;;;;;;16.61;33.17;100305.11;1717436;82;21061;-52
2022/04/28 11:00:02;;;;;;;0.42;0.30;;;;;;;16.59;32.38;100305.17;1706525;82;21107;-52
2022/04/28 11:02:40;;;;;;;0.42;0.30;;;;;;;16.52;33.00;100304.31;1726687;82;20912;-51
2022/04/28 11:05:27;;;;;;;0.78;0.30;;;;;;;16.50;33.55;100303.56;1720490;82;20958;-52
2022/04/28 11:07:53;;;;;;;1.30;0.30;;;;;;;16.52;32.37;100310.62;1720122;82;21559;-52
2022/04/28 11:10:22;;;;;;;0.40;0.20;;;;;;;16.38;32.89;100310.63;1721423;82;20971;-52
2022/04/28 11:12:50;;;;;;;0.30;0.30;;;;;;;16.30;33.45;100304.81;1710943;82;22416;-51
2022/04/28 11:15:17;;;;;;;0.93;0.20;;;;;;;16.24;33.72;100303.37;1703037;83;21037;-51
2022/04/28 11:17:44;;;;;;;1.65;0.30;;;;;;;16.24;33.40;100302.49;1671137;83;21033;-53
2022/04/28 11:20:15;;;;;;;0.28;0.20;;;;;;;16.25;33.48;100302.85;1707248;83;21358;-52
2022/04/28 11:22:52;;;;;;;1.02;0.28;;;;;;;16.22;33.20;100294.44;1638785;86;20992;-51
2022/04/28 11:25:22;;;;;;;1.15;0.20;;;;;;;16.20;32.94;100292.77;1694411;83;21040;-51
2022/04/28 11:27:51;;;;;;;0.30;0.20;;;;;;;16.18;33.48;100292.86;1659724;83;21054;-51
2022/04/28 11:30:22;;;;;;;0.33;0.20;;;;;;;16.20;32.86;100276.48;1701589;83;21054;-50
2022/04/28 11:32:56;;;;;;;0.40;0.20;;;;;;;16.24;32.71;100282.12;1704579;83;21456;-52
2022/04/28 11:35:34;;;;;;;0.95;0.20;;;;;;;16.24;33.05;100288.43;1695326;83;20989;-51
2022/04/28 11:38:00;;;;;;;0.95;0.25;;;;;;;16.22;32.85;100289.48;1707828;83;21377;-52
2022/04/28 11:40:28;;;;;;;0.20;0.13;;;;;;;16.18;33.10;100284.72;1706502;83;21117;-51
2022/04/28 11:43:00;;;;;;;0.30;0.20;;;;;;;16.14;32.86;100284.54;1699057;83;21434;-51
2022/04/28 11:45:30;;;;;;;;;;;;;;;16.10;33.21;100282.97;1703836;83;21617;-51
2022/04/28 11:47:59;;;;;;;0.20;0.20;;;;;;;16.14;33.97;100280.47;1694840;83;20199;-51
2022/04/28 11:50:34;;;;;;;1.05;0.20;;;;;;;16.14;33.49;100272.80;1702585;83;20867;-51
2022/04/28 11:53:11;;;;;;;0.17;0.10;;;;;;;16.15;32.28;100275.91;1698901;83;21048;-52
2022/04/28 11:55:40;;;;;;;0.30;0.20;;;;;;;16.15;31.41;100275.91;1697365;83;21026;-52
2022/04/28 11:58:08;;;;;;;0.30;0.10;;;;;;;16.11;31.71;100271.14;1700325;83;21385;-52
2022/04/28 12:00:40;;;;;;;0.30;0.20;;;;;;;16.11;30.96;100266.19;1701844;83;21106;-52
2022/04/28 12:03:08;;;;;;;0.10;0.10;;;;;;;16.10;31.26;100263.08;1703345;83;21738;-51
2022/04/28 12:05:35;;;;;;;0.30;0.17;;;;;;;16.13;31.36;100263.77;1699512;83;20965;-51
2022/04/28 12:08:04;;;;;;;0.20;0.10;;;;;;;16.15;31.39;100256.41;1700607;82;21362;-50
2022/04/28 12:16:16;;;;;;;0.23;0.20;;;;;;;16.40;32.47;100254.36;1714578;83;21272;-51
2022/04/28 12:21:37;;;;;;;0.20;0.10;;;;;;;16.55;32.85;100256.08;1712571;83;21654;-51
2022/04/28 12:24:15;;;;;;;0.17;0.13;;;;;;;16.62;32.13;100255.22;1697073;84;21069;-51
2022/04/28 12:26:43;;;;;;;1.65;0.10;;;;;;;16.71;32.43;100253.75;1695822;84;21094;-51